createdAt,value
2022-12-25T00:00:32.231Z,5.58
2022-12-25T00:05:59.680Z,5.60
2022-12-25T00:11:08.162Z,5.64
2022-12-25T00:16:21.052Z,5.62
2022-12-25T00:21:25.459Z,5.52
2022-12-25T00:26:29.968Z,5.51
2022-12-25T00:31:35.141Z,5.49
2022-12-25T00:36:41.849Z,5.48
2022-12-25T00:42:05.706Z,5.49
2022-12-25T00:47:09.695Z,5.50
2022-12-25T00:52:13.603Z,5.48
2022-12-25T00:57:17.829Z,5.52
2022-12-25T01:02:24.859Z,5.56
2022-12-25T01:07:31.087Z,5.59
2022-12-25T01:12:38.243Z,5.66
2022-12-25T01:17:45.299Z,5.75
2022-12-25T01:22:51.273Z,5.79
2022-12-25T01:27:56.514Z,5.85
2022-12-25T01:33:01.373Z,5.91
2022-12-25T01:38:07.229Z,5.97
2022-12-25T01:43:25.163Z,6.05
2022-12-25T01:48:37.835Z,6.14
2022-12-25T01:53:44.887Z,6.21
2022-12-25T01:58:50.925Z,6.24
2022-12-25T02:04:01.910Z,6.25
2022-12-25T02:09:08.482Z,6.28
2022-12-25T02:14:14.471Z,6.29
2022-12-25T02:20:03.545Z,6.32
2022-12-25T02:25:09.725Z,6.37
2022-12-25T02:30:15.138Z,6.35
2022-12-25T02:35:29.885Z,6.36
2022-12-25T02:40:50.044Z,6.35
2022-12-25T02:46:19.117Z,6.28
2022-12-25T02:51:46.798Z,6.31
2022-12-25T02:57:11.893Z,6.34
2022-12-25T03:02:36.116Z,6.32
2022-12-25T03:07:43.675Z,6.28
2022-12-25T03:12:59.614Z,6.27
2022-12-25T03:18:07.358Z,6.25
2022-12-25T03:23:34.117Z,6.27
2022-12-25T03:28:39.081Z,6.21
2022-12-25T03:34:09.935Z,6.18
2022-12-25T03:39:50.734Z,6.17
2022-12-25T03:45:29.564Z,6.22
2022-12-25T03:51:11.141Z,6.25
2022-12-25T03:56:38.011Z,6.20
2022-12-25T04:02:02.391Z,6.21
2022-12-25T04:07:25.020Z,6.20
2022-12-25T04:12:48.860Z,6.16
2022-12-25T04:18:13.050Z,6.14
2022-12-25T04:23:37.084Z,6.16
2022-12-25T04:29:00.759Z,6.18
2022-12-25T04:34:23.957Z,6.18
2022-12-25T04:39:28.331Z,6.12
2022-12-25T04:44:33.379Z,6.08
2022-12-25T04:49:37.880Z,6.11
2022-12-25T04:54:42.697Z,6.13
2022-12-25T04:59:48.065Z,6.14
2022-12-25T05:04:53.903Z,6.15
2022-12-25T05:09:59.015Z,6.21
2022-12-25T05:15:03.621Z,6.23
2022-12-25T05:20:09.018Z,6.18
2022-12-25T05:25:14.648Z,6.24
2022-12-25T05:30:19.208Z,6.27
2022-12-25T05:35:24.268Z,6.23
2022-12-25T05:40:29.691Z,6.26
2022-12-25T05:45:34.911Z,6.22
2022-12-25T05:50:40.283Z,6.20
2022-12-25T05:55:44.303Z,6.17
2022-12-25T06:00:49.514Z,6.12
2022-12-25T06:05:54.469Z,6.11
2022-12-25T06:11:00.448Z,6.13
2022-12-25T06:16:07.971Z,6.14
2022-12-25T06:21:14.630Z,6.14
2022-12-25T06:26:20.551Z,6.16
2022-12-25T06:31:25.133Z,6.20
2022-12-25T06:36:30.656Z,6.22
2022-12-25T06:41:34.728Z,6.18
2022-12-25T06:46:39.849Z,6.11
2022-12-25T06:51:44.645Z,6.13
2022-12-25T06:56:49.600Z,6.15
2022-12-25T07:01:58.438Z,6.17
2022-12-25T07:07:08.766Z,6.22
2022-12-25T07:12:23.966Z,6.28
2022-12-25T07:17:28.377Z,6.30
2022-12-25T07:22:32.087Z,6.32
2022-12-25T07:27:36.503Z,6.39
2022-12-25T07:32:45.530Z,6.48
2022-12-25T07:37:54.627Z,6.50
2022-12-25T07:43:01.215Z,6.54
2022-12-25T07:48:11.893Z,6.55
2022-12-25T07:53:20.713Z,6.53
2022-12-25T07:58:25.709Z,6.57
2022-12-25T08:03:30.905Z,6.58
2022-12-25T08:08:38.665Z,6.60
2022-12-25T08:13:46.265Z,6.56
2022-12-25T08:18:51.088Z,6.57
2022-12-25T08:23:56.785Z,6.61
2022-12-25T08:29:02.356Z,6.65
2022-12-25T08:34:08.374Z,6.66
2022-12-25T08:39:13.691Z,6.67
2022-12-25T08:44:17.499Z,6.76
2022-12-25T08:49:21.438Z,6.84
2022-12-25T08:54:25.647Z,6.85
2022-12-25T08:59:30.222Z,6.92
2022-12-25T09:04:35.312Z,6.98
2022-12-25T09:09:39.319Z,6.97
2022-12-25T09:14:44.221Z,6.89
2022-12-25T09:19:49.748Z,6.94
2022-12-25T09:24:53.911Z,7.03
2022-12-25T09:29:58.240Z,7.17
2022-12-25T09:35:03.172Z,7.25
2022-12-25T09:40:09.479Z,7.30
2022-12-25T09:45:26.994Z,7.32
2022-12-25T09:50:32.416Z,7.30
2022-12-25T09:55:45.075Z,7.25
2022-12-25T10:01:00.685Z,7.26
2022-12-25T10:06:24.387Z,7.30
2022-12-25T10:11:42.265Z,7.37
2022-12-25T10:16:46.882Z,7.35
2022-12-25T10:21:56.663Z,7.34
2022-12-25T10:27:05.305Z,7.41
2022-12-25T10:32:11.144Z,7.39
2022-12-25T10:37:18.120Z,7.40
2022-12-25T10:42:36.926Z,7.40
2022-12-25T10:47:45.380Z,7.46
2022-12-25T10:53:09.829Z,7.49
2022-12-25T10:58:21.292Z,7.43
2022-12-25T11:03:31.467Z,7.36
2022-12-25T11:08:35.628Z,7.33
2022-12-25T11:13:51.686Z,7.39
2022-12-25T11:18:59.443Z,7.47
2022-12-25T11:24:06.671Z,7.54
2022-12-25T11:29:39.869Z,7.56
2022-12-25T11:34:48.314Z,7.64
2022-12-25T11:39:53.226Z,7.71
2022-12-25T11:45:12.995Z,7.76
2022-12-25T11:50:37.489Z,7.80
2022-12-25T11:55:46.812Z,7.77
2022-12-25T12:00:54.858Z,7.68
2022-12-25T12:06:05.419Z,7.67
2022-12-25T12:11:22.390Z,7.69
2022-12-25T12:16:27.483Z,7.69
2022-12-25T12:21:33.100Z,7.67
2022-12-25T12:26:42.229Z,7.67
2022-12-25T12:31:50.602Z,7.72
2022-12-25T12:37:05.600Z,7.73
2022-12-25T12:42:20.738Z,7.61
2022-12-25T12:47:50.099Z,7.59
2022-12-25T12:52:57.124Z,7.69
2022-12-25T12:58:07.041Z,7.68
2022-12-25T13:03:49.190Z,7.67
2022-12-25T13:09:26.868Z,7.66
2022-12-25T13:14:31.545Z,7.64
2022-12-25T13:19:37.824Z,7.59
2022-12-25T13:24:43.207Z,7.53
2022-12-25T13:29:49.019Z,7.40
2022-12-25T13:34:54.957Z,7.38
2022-12-25T13:40:02.071Z,7.41
2022-12-25T13:45:19.814Z,7.41
2022-12-25T13:50:34.937Z,7.34
2022-12-25T13:55:40.947Z,7.34
2022-12-25T14:00:51.688Z,7.35
2022-12-25T14:06:01.333Z,7.26
2022-12-25T14:11:08.230Z,7.08
2022-12-25T14:16:17.597Z,6.98
2022-12-25T14:21:53.070Z,6.99
2022-12-25T14:27:09.703Z,7.01
2022-12-25T14:32:34.995Z,7.01
2022-12-25T14:37:55.284Z,6.98
2022-12-25T14:43:24.825Z,6.81
2022-12-25T14:48:38.492Z,6.75
2022-12-25T14:53:56.371Z,6.74
2022-12-25T14:59:06.036Z,6.72
2022-12-25T15:04:22.769Z,6.64
2022-12-25T15:09:31.703Z,6.56
2022-12-25T15:14:39.212Z,6.55
2022-12-25T15:19:50.689Z,6.55
2022-12-25T15:25:12.507Z,6.56
2022-12-25T15:30:30.140Z,6.64
2022-12-25T15:41:09.522Z,6.60
2022-12-25T15:46:28.630Z,6.52
2022-12-25T15:51:48.430Z,6.35
2022-12-25T15:57:12.428Z,6.28
2022-12-25T16:02:26.143Z,6.19
2022-12-25T16:07:39.961Z,6.19
2022-12-25T16:13:00.298Z,6.18
2022-12-25T16:18:25.215Z,6.09
2022-12-25T16:23:37.246Z,6.00
2022-12-25T16:28:55.029Z,5.92
2022-12-25T16:34:09.304Z,5.85
2022-12-25T16:39:29.048Z,5.79
2022-12-25T16:44:40.654Z,5.72
2022-12-25T16:50:05.318Z,5.71
2022-12-25T16:55:18.977Z,5.61
2022-12-25T17:00:29.473Z,5.53
2022-12-25T17:05:42.721Z,5.55
2022-12-25T17:10:57.549Z,5.56
2022-12-25T17:16:27.551Z,5.53
2022-12-25T17:21:47.984Z,5.49
2022-12-25T17:27:15.763Z,5.46
2022-12-25T17:32:37.532Z,5.44
2022-12-25T17:38:01.309Z,5.43
2022-12-25T17:43:19.013Z,5.41
2022-12-25T17:48:30.062Z,5.34
2022-12-25T17:53:43.172Z,5.31
2022-12-25T17:58:58.414Z,5.34
2022-12-25T18:04:07.842Z,5.37
2022-12-25T18:09:13.703Z,5.38
2022-12-25T18:14:18.404Z,5.33
2022-12-25T18:19:24.141Z,5.23
2022-12-25T18:24:29.168Z,5.19
2022-12-25T18:29:33.831Z,5.16
2022-12-25T18:34:38.812Z,5.11
2022-12-25T18:39:43.209Z,5.09
2022-12-25T18:44:51.643Z,5.04
2022-12-25T18:49:56.290Z,5.05
2022-12-25T18:55:00.853Z,5.06
2022-12-25T19:00:11.785Z,5.06
2022-12-25T19:05:20.804Z,5.06
2022-12-25T19:10:33.200Z,5.02
2022-12-25T19:15:43.557Z,4.99
2022-12-25T19:20:54.529Z,4.92
2022-12-25T19:26:00.864Z,4.92
2022-12-25T19:31:07.948Z,4.92
2022-12-25T19:36:17.039Z,4.90
2022-12-25T19:41:24.652Z,4.92
2022-12-25T19:46:39.170Z,4.97
2022-12-25T19:51:46.604Z,4.95
2022-12-25T19:56:50.877Z,4.94
2022-12-25T20:01:56.308Z,4.88
2022-12-25T20:07:03.993Z,4.83
2022-12-25T20:12:11.326Z,4.87
2022-12-25T20:17:16.112Z,4.94
2022-12-25T20:26:42.871Z,4.96
2022-12-25T20:31:47.997Z,4.93
2022-12-25T20:36:52.135Z,4.93
2022-12-25T20:41:56.352Z,4.90
2022-12-25T20:47:01.362Z,4.92
2022-12-25T20:52:06.517Z,4.92
2022-12-25T20:57:10.939Z,4.93
2022-12-25T21:02:35.845Z,4.87
2022-12-25T21:07:40.940Z,4.81
2022-12-25T21:12:46.196Z,4.81
2022-12-25T21:17:50.273Z,4.80
2022-12-25T21:22:54.268Z,4.79
2022-12-25T21:27:57.889Z,4.72
2022-12-25T21:33:21.488Z,4.73
2022-12-25T21:38:26.916Z,4.70
2022-12-25T21:43:31.644Z,4.72
2022-12-25T21:48:38.258Z,4.69
2022-12-25T21:53:42.304Z,4.68
2022-12-25T21:58:48.073Z,4.66
2022-12-25T22:03:53.009Z,4.67
2022-12-25T22:08:57.512Z,4.67
2022-12-25T22:14:20.794Z,4.70
2022-12-25T22:19:45.994Z,4.73
2022-12-25T22:24:52.304Z,4.78
2022-12-25T22:29:56.693Z,4.77
2022-12-25T22:35:00.890Z,4.79
2022-12-25T22:40:06.403Z,4.84
2022-12-25T22:45:13.716Z,4.93
2022-12-25T22:50:21.310Z,4.98
2022-12-25T22:55:26.864Z,5.08
2022-12-25T23:00:31.892Z,5.13
2022-12-25T23:05:37.240Z,5.16
2022-12-25T23:10:41.671Z,5.17
2022-12-25T23:15:49.075Z,5.20
2022-12-25T23:21:14.448Z,5.23
2022-12-25T23:26:21.796Z,5.17
2022-12-25T23:31:35.364Z,5.14
2022-12-25T23:36:41.970Z,5.15
2022-12-25T23:41:46.388Z,5.15
2022-12-25T23:46:52.578Z,5.19
2022-12-25T23:51:59.221Z,5.20
2022-12-25T23:57:04.074Z,5.16
